createdAt,value
2023-02-11T00:01:34.382Z,55.43
2023-02-11T00:04:03.284Z,55.02
2023-02-11T00:06:33.506Z,54.52
2023-02-11T00:09:01.454Z,55.08
2023-02-11T00:11:30.619Z,55.42
2023-02-11T00:14:02.536Z,56.07
2023-02-11T00:16:32.007Z,56.79
2023-02-11T00:19:02.607Z,58.57
2023-02-11T00:21:30.390Z,59.39
2023-02-11T00:24:00.046Z,58.65
2023-02-11T00:26:36.380Z,59.37
2023-02-11T00:29:05.785Z,60.08
2023-02-11T00:31:34.488Z,59.88
2023-02-11T00:34:02.886Z,59.58
2023-02-11T00:36:30.528Z,61.27
2023-02-11T00:38:59.804Z,59.96
2023-02-11T00:41:29.408Z,59.31
2023-02-11T00:44:01.938Z,59.19
2023-02-11T00:46:30.327Z,59.18
2023-02-11T00:48:58.129Z,60.57
2023-02-11T00:51:27.391Z,59.49
2023-02-11T00:53:55.767Z,62.22
2023-02-11T00:56:24.308Z,61.95
2023-02-11T00:58:53.426Z,61.32
2023-02-11T01:01:21.853Z,62.63
2023-02-11T01:03:50.192Z,62.50
2023-02-11T01:06:17.872Z,63.19
2023-02-11T01:08:46.438Z,63.73
2023-02-11T01:11:18.086Z,64.89
2023-02-11T01:13:48.064Z,63.21
2023-02-11T01:16:17.469Z,63.20
2023-02-11T01:18:46.350Z,65.42
2023-02-11T01:21:14.860Z,65.11
2023-02-11T01:23:44.831Z,65.22
2023-02-11T01:26:13.355Z,64.46
2023-02-11T01:28:41.224Z,65.42
2023-02-11T01:31:08.840Z,66.80
2023-02-11T01:33:36.541Z,68.15
2023-02-11T01:36:07.835Z,68.64
2023-02-11T01:38:36.468Z,68.84
2023-02-11T01:41:07.413Z,69.06
2023-02-11T01:43:38.284Z,68.84
2023-02-11T01:46:21.254Z,69.01
2023-02-11T01:48:53.939Z,69.13
2023-02-11T01:51:27.431Z,70.75
2023-02-11T01:54:16.369Z,71.02
2023-02-11T01:57:07.333Z,70.59
2023-02-11T01:59:44.883Z,71.45
2023-02-11T02:02:15.234Z,71.61
2023-02-11T02:04:57.583Z,71.27
2023-02-11T02:07:39.641Z,69.47
2023-02-11T02:10:15.798Z,69.82
2023-02-11T02:12:43.993Z,70.58
2023-02-11T02:15:23.097Z,70.28
2023-02-11T02:18:20.597Z,72.24
2023-02-11T02:21:21.876Z,71.44
2023-02-11T02:24:21.073Z,71.07
2023-02-11T02:27:12.541Z,71.23
2023-02-11T02:29:46.524Z,71.67
2023-02-11T02:32:35.234Z,72.41
2023-02-11T02:35:30.977Z,72.11
2023-02-11T02:38:24.148Z,73.51
2023-02-11T02:41:21.088Z,74.94
2023-02-11T02:43:50.998Z,74.26
2023-02-11T02:46:24.360Z,74.93
2023-02-11T02:48:53.769Z,75.05
2023-02-11T02:51:27.668Z,75.35
2023-02-11T02:53:55.316Z,75.27
2023-02-11T02:56:49.182Z,75.91
2023-02-11T02:59:23.101Z,78.27
2023-02-11T03:02:03.500Z,76.27
2023-02-11T03:04:38.153Z,75.09
2023-02-11T03:07:26.179Z,74.50
2023-02-11T03:10:23.247Z,75.41
2023-02-11T03:12:54.095Z,75.25
2023-02-11T03:15:25.342Z,76.10
2023-02-11T03:17:57.378Z,75.52
2023-02-11T03:20:28.447Z,76.30
2023-02-11T03:23:03.063Z,77.83
2023-02-11T03:25:37.313Z,79.29
2023-02-11T03:28:25.338Z,79.57
2023-02-11T03:31:10.898Z,80.04
2023-02-11T03:33:54.830Z,80.12
2023-02-11T03:36:32.915Z,80.14
2023-02-11T03:39:04.266Z,79.20
2023-02-11T03:41:34.301Z,80.84
2023-02-11T03:44:03.362Z,82.14
2023-02-11T03:46:36.870Z,82.98
2023-02-11T03:49:09.366Z,83.76
2023-02-11T03:51:38.120Z,82.99
2023-02-11T03:54:14.941Z,81.71
2023-02-11T03:56:51.350Z,81.43
2023-02-11T03:59:19.569Z,83.21
2023-02-11T04:01:47.350Z,83.10
2023-02-11T04:04:15.640Z,82.67
2023-02-11T04:06:43.588Z,81.95
2023-02-11T04:09:12.757Z,85.81
2023-02-11T04:11:40.412Z,85.51
2023-02-11T04:14:07.990Z,85.77
2023-02-11T04:16:36.016Z,85.32
2023-02-11T04:19:04.244Z,86.09
2023-02-11T04:21:32.261Z,86.04
2023-02-11T04:24:00.257Z,86.70
2023-02-11T04:26:28.313Z,86.94
2023-02-11T04:28:55.904Z,87.91
2023-02-11T04:31:24.158Z,88.81
2023-02-11T04:33:52.203Z,88.11
2023-02-11T04:36:20.421Z,87.37
2023-02-11T04:38:48.856Z,87.35
2023-02-11T04:41:16.371Z,87.90
2023-02-11T04:43:44.057Z,88.00
2023-02-11T04:46:11.826Z,88.69
2023-02-11T04:48:39.429Z,86.61
2023-02-11T04:51:07.092Z,87.53
2023-02-11T04:53:35.231Z,88.36
2023-02-11T04:56:03.260Z,88.72
2023-02-11T04:58:31.196Z,88.76
2023-02-11T05:01:10.328Z,89.11
2023-02-11T05:03:38.665Z,90.08
2023-02-11T05:06:07.090Z,90.92
2023-02-11T05:08:34.807Z,90.36
2023-02-11T05:11:02.517Z,91.20
2023-02-11T05:13:31.195Z,91.30
2023-02-11T05:15:59.497Z,91.09
2023-02-11T05:18:28.234Z,90.48
2023-02-11T05:20:55.871Z,89.48
2023-02-11T05:23:23.498Z,88.71
2023-02-11T05:25:51.722Z,88.94
2023-02-11T05:28:19.510Z,88.68
2023-02-11T05:30:47.206Z,88.47
2023-02-11T05:33:15.323Z,88.71
2023-02-11T05:35:43.307Z,88.69
2023-02-11T05:38:11.168Z,89.73
2023-02-11T05:40:40.344Z,90.23
2023-02-11T05:43:08.405Z,90.50
2023-02-11T05:45:36.938Z,90.13
2023-02-11T05:48:04.671Z,90.30
2023-02-11T05:50:32.334Z,89.45
2023-02-11T05:53:00.585Z,87.80
2023-02-11T05:55:28.358Z,89.48
2023-02-11T05:57:56.379Z,91.97
2023-02-11T06:00:24.339Z,91.02
2023-02-11T06:02:52.673Z,91.11
2023-02-11T06:05:20.801Z,89.42
2023-02-11T06:07:48.836Z,88.64
2023-02-11T06:10:16.315Z,88.12
2023-02-11T06:12:44.917Z,88.00
2023-02-11T06:15:13.037Z,88.84
2023-02-11T06:17:41.156Z,88.89
2023-02-11T06:20:10.700Z,88.77
2023-02-11T06:22:38.445Z,89.00
2023-02-11T06:25:07.411Z,89.79
2023-02-11T06:27:35.063Z,88.82
2023-02-11T06:30:03.153Z,88.64
2023-02-11T06:32:46.730Z,87.96
2023-02-11T06:35:15.160Z,87.63
2023-02-11T06:37:43.172Z,88.29
2023-02-11T06:40:11.699Z,86.79
2023-02-11T06:42:39.702Z,86.48
2023-02-11T06:45:09.778Z,85.37
2023-02-11T06:47:38.234Z,84.62
2023-02-11T06:50:08.761Z,83.17
2023-02-11T06:52:36.835Z,82.72
2023-02-11T06:55:05.279Z,82.88
2023-02-11T06:57:33.171Z,81.11
2023-02-11T07:00:01.197Z,76.35
2023-02-11T07:02:29.033Z,77.00
2023-02-11T07:04:57.481Z,75.24
2023-02-11T07:07:24.979Z,74.22
2023-02-11T07:09:52.942Z,73.24
2023-02-11T07:12:20.559Z,71.89
2023-02-11T07:14:48.155Z,70.22
2023-02-11T07:17:16.282Z,69.83
2023-02-11T07:19:44.139Z,68.05
2023-02-11T07:22:12.205Z,67.03
2023-02-11T07:24:40.804Z,65.66
2023-02-11T07:27:08.434Z,65.75
2023-02-11T07:29:36.106Z,64.63
2023-02-11T07:32:04.324Z,63.90
2023-02-11T07:34:33.228Z,63.16
2023-02-11T07:37:01.479Z,64.95
2023-02-11T07:39:29.571Z,63.49
2023-02-11T07:41:57.637Z,62.13
2023-02-11T07:44:26.159Z,61.28
2023-02-11T07:46:54.439Z,60.73
2023-02-11T07:49:22.131Z,60.91
2023-02-11T07:51:51.538Z,60.69
2023-02-11T07:54:19.771Z,58.15
2023-02-11T07:56:47.417Z,60.11
2023-02-11T07:59:15.198Z,58.89
2023-02-11T08:01:44.008Z,59.26
2023-02-11T08:04:12.488Z,57.69
2023-02-11T08:06:42.734Z,56.73
2023-02-11T08:09:15.322Z,55.49
2023-02-11T08:11:43.366Z,55.18
2023-02-11T08:14:12.484Z,54.36
2023-02-11T08:16:41.242Z,52.92
2023-02-11T08:19:15.600Z,49.28
2023-02-11T08:21:43.898Z,49.67
2023-02-11T08:24:12.551Z,48.73
2023-02-11T08:26:40.324Z,49.72
2023-02-11T08:29:14.300Z,48.45
2023-02-11T08:31:45.411Z,48.17
2023-02-11T08:34:14.762Z,50.36
2023-02-11T08:36:43.998Z,49.46
2023-02-11T08:39:20.795Z,48.19
2023-02-11T08:41:53.935Z,48.45
2023-02-11T08:44:23.030Z,48.42
2023-02-11T08:46:52.276Z,50.38
2023-02-11T08:49:20.621Z,49.88
2023-02-11T08:51:48.861Z,52.13
2023-02-11T08:54:16.702Z,51.50
2023-02-11T08:56:45.358Z,53.51
2023-02-11T08:59:15.546Z,53.77
2023-02-11T09:01:44.528Z,54.27
2023-02-11T09:04:13.089Z,51.99
2023-02-11T09:06:41.304Z,53.69
2023-02-11T09:09:13.707Z,50.07
2023-02-11T09:11:43.075Z,45.83
2023-02-11T09:14:22.622Z,43.52
2023-02-11T09:16:51.919Z,42.26
2023-02-11T09:19:21.021Z,41.63
2023-02-11T09:21:49.296Z,41.82
2023-02-11T09:24:17.338Z,39.68
2023-02-11T09:26:46.128Z,38.31
2023-02-11T09:29:14.253Z,36.49
2023-02-11T09:31:42.653Z,38.37
2023-02-11T09:34:11.519Z,37.12
2023-02-11T09:36:40.870Z,37.36
2023-02-11T09:39:20.556Z,35.16
2023-02-11T09:42:03.833Z,38.58
2023-02-11T09:44:37.640Z,39.01
2023-02-11T09:47:24.141Z,38.85
2023-02-11T09:50:00.269Z,40.24
2023-02-11T09:52:48.318Z,39.28
2023-02-11T09:55:29.953Z,37.06
2023-02-11T09:57:58.973Z,36.88
2023-02-11T10:00:29.507Z,36.09
2023-02-11T10:03:20.742Z,35.55
2023-02-11T10:06:14.120Z,35.41
2023-02-11T10:09:17.227Z,35.10
2023-02-11T10:11:53.206Z,35.48
2023-02-11T10:14:39.726Z,37.10
2023-02-11T10:17:18.485Z,37.66
2023-02-11T10:20:17.186Z,38.95
2023-02-11T10:22:58.358Z,35.66
2023-02-11T10:25:39.429Z,34.74
2023-02-11T10:28:20.323Z,34.54
2023-02-11T10:31:34.493Z,34.07
2023-02-11T10:34:07.178Z,33.01
2023-02-11T10:36:38.283Z,33.60
2023-02-11T10:39:18.558Z,31.25
2023-02-11T10:42:01.080Z,31.65
2023-02-11T10:44:38.754Z,32.60
2023-02-11T10:47:19.321Z,32.99
2023-02-11T11:15:11.771Z,34.09
2023-02-11T11:17:40.222Z,32.48
2023-02-11T11:20:19.868Z,31.35
2023-02-11T11:22:49.813Z,30.33
2023-02-11T11:25:23.099Z,31.29
2023-02-11T11:27:55.290Z,30.61
2023-02-11T11:30:26.436Z,31.60
2023-02-11T11:32:54.942Z,33.33
2023-02-11T11:35:28.248Z,34.86
2023-02-11T11:38:02.038Z,35.01
2023-02-11T11:40:33.091Z,34.82
2023-02-11T11:43:14.808Z,34.53
2023-02-11T11:46:00.267Z,36.18
2023-02-11T11:48:50.945Z,35.48
2023-02-11T11:51:19.885Z,35.98
2023-02-11T11:54:01.392Z,37.38
2023-02-11T11:56:33.776Z,39.62
2023-02-11T11:59:07.040Z,40.92
2023-02-11T12:02:02.063Z,38.60
2023-02-11T12:04:39.233Z,38.64
2023-02-11T12:07:12.819Z,37.20
2023-02-11T12:10:14.662Z,36.53
2023-02-11T12:13:18.427Z,37.98
2023-02-11T12:15:55.261Z,36.44
2023-02-11T12:18:56.777Z,35.84
2023-02-11T12:21:43.069Z,34.45
2023-02-11T12:24:48.083Z,33.45
2023-02-11T12:27:32.846Z,32.08
2023-02-11T12:30:13.407Z,32.69
2023-02-11T12:33:15.726Z,34.10
2023-02-11T12:35:58.678Z,34.90
2023-02-11T12:38:48.550Z,37.87
2023-02-11T12:42:04.098Z,39.62
2023-02-11T12:44:58.729Z,38.53
2023-02-11T12:47:35.890Z,36.69
2023-02-11T12:50:27.983Z,36.09
2023-02-11T12:53:14.178Z,34.86
2023-02-11T12:55:46.721Z,32.73
2023-02-11T12:58:29.721Z,31.72
2023-02-11T13:01:26.436Z,31.44
2023-02-11T13:04:08.642Z,30.61
2023-02-11T13:06:52.127Z,31.88
2023-02-11T13:09:43.985Z,30.35
2023-02-11T13:12:32.414Z,30.08
2023-02-11T13:15:07.146Z,29.76
2023-02-11T13:17:50.273Z,27.20
2023-02-11T13:20:18.748Z,29.57
2023-02-11T13:22:59.618Z,30.58
2023-02-11T13:25:33.516Z,30.28
2023-02-11T13:28:07.722Z,28.61
2023-02-11T13:30:39.441Z,27.02
2023-02-11T13:33:17.924Z,25.71
2023-02-11T13:35:51.185Z,26.83
2023-02-11T13:38:25.113Z,24.53
2023-02-11T13:41:23.516Z,22.00
2023-02-11T13:44:19.430Z,21.82
2023-02-11T13:46:50.575Z,23.58
2023-02-11T13:49:22.318Z,23.71
2023-02-11T13:51:51.407Z,23.13
2023-02-11T13:54:30.815Z,22.64
2023-02-11T13:57:20.865Z,20.94
2023-02-11T13:59:52.519Z,20.64
2023-02-11T14:02:55.328Z,20.61
2023-02-11T14:05:43.538Z,18.75
2023-02-11T14:08:30.042Z,19.54
2023-02-11T14:11:10.936Z,19.36
2023-02-11T14:13:47.714Z,19.36
2023-02-11T14:16:37.002Z,17.90
2023-02-11T14:19:06.863Z,18.67
2023-02-11T14:21:38.749Z,17.82
2023-02-11T14:24:07.100Z,17.47
2023-02-11T14:27:11.750Z,18.16
2023-02-11T14:29:47.751Z,18.44
2023-02-11T14:32:35.090Z,18.74
2023-02-11T14:35:18.557Z,19.58
2023-02-11T14:37:57.588Z,18.22
2023-02-11T14:40:35.335Z,17.21
2023-02-11T14:43:29.426Z,16.94
2023-02-11T14:45:59.324Z,17.46
2023-02-11T14:48:39.231Z,17.34
2023-02-11T14:51:10.570Z,18.36
2023-02-11T14:53:44.052Z,19.21
2023-02-11T14:56:26.970Z,18.73
2023-02-11T14:58:55.955Z,19.06
2023-02-11T15:01:35.582Z,18.25
2023-02-11T15:04:06.153Z,19.28
2023-02-11T15:06:49.668Z,19.16
2023-02-11T15:09:24.177Z,19.53
2023-02-11T15:11:53.395Z,18.45
2023-02-11T15:14:30.336Z,18.97
2023-02-11T15:17:06.299Z,18.80
2023-02-11T15:19:38.818Z,19.77
2023-02-11T15:22:18.627Z,21.43
2023-02-11T15:25:10.838Z,21.65
2023-02-11T15:27:43.886Z,22.88
2023-02-11T15:30:24.413Z,24.20
2023-02-11T15:32:58.693Z,25.67
2023-02-11T15:35:33.139Z,26.34
2023-02-11T15:38:01.653Z,28.21
2023-02-11T15:40:33.144Z,29.46
2023-02-11T15:43:09.206Z,30.33
2023-02-11T15:45:42.000Z,32.24
2023-02-11T15:48:18.874Z,33.30
2023-02-11T15:50:55.634Z,33.98
2023-02-11T15:53:38.012Z,34.50
2023-02-11T15:56:17.873Z,35.24
2023-02-11T15:58:49.804Z,35.36
2023-02-11T16:01:18.072Z,35.68
2023-02-11T16:03:50.927Z,36.26
2023-02-11T16:06:25.209Z,36.60
2023-02-11T16:09:12.436Z,36.99
2023-02-11T16:11:46.455Z,37.86
2023-02-11T16:14:39.578Z,37.84
2023-02-11T16:17:25.234Z,38.46
2023-02-11T16:19:54.305Z,38.60
2023-02-11T16:22:35.445Z,38.98
2023-02-11T16:25:03.335Z,39.31
2023-02-11T16:27:41.186Z,39.41
2023-02-11T16:30:28.172Z,39.95
2023-02-11T16:32:56.559Z,39.65
2023-02-11T16:35:24.753Z,39.91
2023-02-11T16:37:52.850Z,39.97
2023-02-11T16:40:21.579Z,39.82
2023-02-11T16:42:49.853Z,39.75
2023-02-11T16:45:18.151Z,40.23
2023-02-11T16:47:46.563Z,39.81
2023-02-11T16:50:23.384Z,40.78
2023-02-11T16:52:53.002Z,41.18
2023-02-11T16:55:22.268Z,40.74
2023-02-11T16:57:50.143Z,40.81
2023-02-11T17:00:19.254Z,40.99
2023-02-11T17:02:47.049Z,41.02
2023-02-11T17:05:20.853Z,41.38
2023-02-11T17:07:48.807Z,41.45
2023-02-11T17:10:21.749Z,41.93
2023-02-11T17:12:51.052Z,42.05
2023-02-11T17:15:19.204Z,42.12
2023-02-11T17:17:46.875Z,42.13
2023-02-11T17:20:16.096Z,42.11
2023-02-11T17:22:44.034Z,42.48
2023-02-11T17:25:12.313Z,42.82
2023-02-11T17:27:40.964Z,42.94
2023-02-11T17:30:10.045Z,43.94
2023-02-11T17:32:39.028Z,44.02
2023-02-11T17:35:07.598Z,44.16
2023-02-11T17:37:35.321Z,44.03
2023-02-11T17:40:03.940Z,43.88
2023-02-11T17:42:31.528Z,44.72
2023-02-11T17:44:59.033Z,44.89
2023-02-11T17:47:27.427Z,45.30
2023-02-11T17:49:54.912Z,46.04
2023-02-11T17:52:24.401Z,45.25
2023-02-11T17:54:52.079Z,45.46
2023-02-11T17:57:20.384Z,45.66
2023-02-11T17:59:47.879Z,46.49
2023-02-11T18:02:16.051Z,46.23
2023-02-11T18:04:44.367Z,46.06
2023-02-11T18:07:12.030Z,46.62
2023-02-11T18:09:40.992Z,46.42
2023-02-11T18:12:10.785Z,46.32
2023-02-11T18:14:40.632Z,46.59
2023-02-11T18:17:09.506Z,46.75
2023-02-11T18:19:37.691Z,47.25
2023-02-11T18:22:05.255Z,47.61
2023-02-11T18:24:33.708Z,47.12
2023-02-11T18:27:01.478Z,47.32
2023-02-11T18:29:29.737Z,47.62
2023-02-11T18:31:58.089Z,47.71
2023-02-11T18:34:26.847Z,48.03
2023-02-11T18:36:54.945Z,48.09
2023-02-11T18:39:24.411Z,48.30
2023-02-11T18:41:57.076Z,47.85
2023-02-11T18:44:27.135Z,47.76
2023-02-11T18:46:55.486Z,47.42
2023-02-11T18:49:23.581Z,47.09
2023-02-11T18:51:51.898Z,47.44
2023-02-11T18:54:19.786Z,47.80
2023-02-11T18:56:47.882Z,47.21
2023-02-11T18:59:15.564Z,47.67
2023-02-11T19:01:46.872Z,48.09
2023-02-11T19:04:20.132Z,48.18
2023-02-11T19:06:49.811Z,48.27
2023-02-11T19:09:19.918Z,48.42
2023-02-11T19:11:48.038Z,48.08
2023-02-11T19:14:22.528Z,48.34
2023-02-11T19:16:53.247Z,48.41
2023-02-11T19:19:23.264Z,48.26
2023-02-11T19:21:51.925Z,48.33
2023-02-11T19:24:20.326Z,48.52
2023-02-11T19:26:50.186Z,48.29
2023-02-11T19:29:18.282Z,49.04
2023-02-11T19:31:46.881Z,49.67
2023-02-11T19:34:16.665Z,50.15
2023-02-11T19:36:44.446Z,50.53
2023-02-11T19:39:12.725Z,50.98
2023-02-11T19:41:40.866Z,51.89
2023-02-11T19:44:09.972Z,51.19
2023-02-11T19:46:41.073Z,51.37
2023-02-11T19:49:10.104Z,51.64
2023-02-11T19:51:39.473Z,52.32
2023-02-11T19:54:08.426Z,52.01
2023-02-11T19:56:37.974Z,52.21
2023-02-11T19:59:09.065Z,52.23
2023-02-11T20:01:37.334Z,52.71
2023-02-11T20:04:06.010Z,52.35
2023-02-11T20:06:34.795Z,52.26
2023-02-11T20:09:06.644Z,53.03
2023-02-11T20:11:35.624Z,53.56
2023-02-11T20:14:04.343Z,53.62
2023-02-11T20:16:47.024Z,55.71
2023-02-11T20:19:18.374Z,54.45
2023-02-11T20:21:48.620Z,55.02
2023-02-11T20:24:18.881Z,56.44
2023-02-11T20:26:48.605Z,57.26
2023-02-11T20:29:17.609Z,57.00
2023-02-11T20:31:45.781Z,57.66
2023-02-11T20:34:17.061Z,57.36
2023-02-11T20:36:51.532Z,57.73
2023-02-11T20:39:22.370Z,58.55
2023-02-11T20:41:51.261Z,57.77
2023-02-11T20:44:23.834Z,58.76
2023-02-11T20:46:52.156Z,59.82
2023-02-11T20:49:23.692Z,60.66
2023-02-11T20:51:53.361Z,60.88
2023-02-11T20:54:23.491Z,61.62
2023-02-11T20:56:53.718Z,61.24
2023-02-11T20:59:22.024Z,61.22
2023-02-11T21:01:55.841Z,61.76
2023-02-11T21:04:25.613Z,61.04
2023-02-11T21:06:56.725Z,63.28
2023-02-11T21:09:28.086Z,62.79
2023-02-11T21:11:55.994Z,62.64
2023-02-11T21:14:25.886Z,63.10
2023-02-11T21:16:54.191Z,62.01
2023-02-11T21:19:21.894Z,62.00
2023-02-11T21:21:50.440Z,62.70
2023-02-11T21:24:18.486Z,62.62
2023-02-11T21:26:46.106Z,62.38
2023-02-11T21:29:14.043Z,63.08
2023-02-11T21:31:42.551Z,64.21
2023-02-11T21:34:10.801Z,64.46
2023-02-11T21:36:39.174Z,66.40
2023-02-11T21:39:07.083Z,66.25
2023-02-11T21:41:35.619Z,66.65
2023-02-11T21:44:06.120Z,67.95
2023-02-11T21:46:33.665Z,68.04
2023-02-11T21:49:01.880Z,67.60
2023-02-11T21:51:30.266Z,67.31
2023-02-11T21:54:03.070Z,66.98
2023-02-11T21:56:32.159Z,68.35
2023-02-11T21:59:00.706Z,67.60
2023-02-11T22:01:31.160Z,67.48
2023-02-11T22:04:00.176Z,67.52
2023-02-11T22:06:32.949Z,68.06
2023-02-11T22:09:07.479Z,69.74
2023-02-11T22:11:36.310Z,69.03
2023-02-11T22:14:04.794Z,68.29
2023-02-11T22:16:33.446Z,68.01
2023-02-11T22:19:02.566Z,68.25
2023-02-11T22:21:30.985Z,68.34
2023-02-11T22:23:59.069Z,69.18
2023-02-11T22:26:28.650Z,68.51
2023-02-11T22:28:56.588Z,69.62
2023-02-11T22:31:30.688Z,69.45
2023-02-11T22:34:00.180Z,70.54
2023-02-11T22:36:30.838Z,71.36
2023-02-11T22:39:11.548Z,70.24
2023-02-11T22:41:42.372Z,69.90
2023-02-11T22:44:11.135Z,71.10
2023-02-11T22:46:39.198Z,70.94
2023-02-11T22:49:07.858Z,71.25
2023-02-11T22:51:35.641Z,70.44
2023-02-11T22:54:06.558Z,71.26
2023-02-11T22:56:35.331Z,71.99
2023-02-11T22:59:07.927Z,71.92
2023-02-11T23:01:35.543Z,72.62
2023-02-11T23:04:05.009Z,71.95
2023-02-11T23:06:33.083Z,72.76
2023-02-11T23:09:01.587Z,73.18
2023-02-11T23:11:31.336Z,74.30
2023-02-11T23:13:59.428Z,74.29
2023-02-11T23:16:34.132Z,74.35
2023-02-11T23:19:09.151Z,75.28
2023-02-11T23:21:39.560Z,74.55
2023-02-11T23:24:12.676Z,75.64
2023-02-11T23:26:41.751Z,74.98
2023-02-11T23:29:10.568Z,75.96
2023-02-11T23:31:41.316Z,76.26
2023-02-11T23:34:09.885Z,74.90
2023-02-11T23:36:37.848Z,75.86
2023-02-11T23:39:05.941Z,76.80
2023-02-11T23:41:33.882Z,78.12
2023-02-11T23:44:01.765Z,76.55
2023-02-11T23:46:29.364Z,75.83
2023-02-11T23:48:58.203Z,76.80
2023-02-11T23:51:25.916Z,77.37
2023-02-11T23:53:56.176Z,77.15
2023-02-11T23:56:27.112Z,78.25
2023-02-11T23:58:57.360Z,78.07
